sensor_id;sensor_type;location;lat;lon;timestamp;P1;durP1;ratioP1;P2;durP2;ratioP2
31210;SDS011;17836;50.948;3.946;2023-09-30T00:04:32;9.40;;;4.45;;
31210;SDS011;17836;50.948;3.946;2023-09-30T00:06:58;5.88;;;4.10;;
31210;SDS011;17836;50.948;3.946;2023-09-30T00:09:28;7.50;;;4.32;;
31210;SDS011;17836;50.948;3.946;2023-09-30T00:11:56;7.45;;;4.80;;
31210;SDS011;17836;50.948;3.946;2023-09-30T00:14:24;9.65;;;4.85;;
31210;SDS011;17836;50.948;3.946;2023-09-30T00:16:52;5.10;;;4.60;;
31210;SDS011;17836;50.948;3.946;2023-09-30T00:19:17;6.85;;;4.30;;
31210;SDS011;17836;50.948;3.946;2023-09-30T00:21:42;5.32;;;4.55;;
31210;SDS011;17836;50.948;3.946;2023-09-30T00:24:08;8.37;;;4.30;;
31210;SDS011;17836;50.948;3.946;2023-09-30T00:26:33;5.83;;;4.37;;
31210;SDS011;17836;50.948;3.946;2023-09-30T00:28:58;7.30;;;5.00;;
31210;SDS011;17836;50.948;3.946;2023-09-30T00:31:23;6.97;;;4.18;;
31210;SDS011;17836;50.948;3.946;2023-09-30T00:33:49;5.90;;;4.27;;
31210;SDS011;17836;50.948;3.946;2023-09-30T00:36:17;6.88;;;4.60;;
31210;SDS011;17836;50.948;3.946;2023-09-30T00:38:42;8.80;;;4.50;;
31210;SDS011;17836;50.948;3.946;2023-09-30T00:41:08;7.33;;;4.97;;
31210;SDS011;17836;50.948;3.946;2023-09-30T00:43:33;7.72;;;5.30;;
31210;SDS011;17836;50.948;3.946;2023-09-30T00:48:28;6.22;;;4.88;;
31210;SDS011;17836;50.948;3.946;2023-09-30T00:50:56;8.57;;;4.93;;
31210;SDS011;17836;50.948;3.946;2023-09-30T00:53:22;6.38;;;5.55;;
31210;SDS011;17836;50.948;3.946;2023-09-30T00:55:47;7.78;;;5.50;;
31210;SDS011;17836;50.948;3.946;2023-09-30T00:58:12;11.15;;;6.20;;
31210;SDS011;17836;50.948;3.946;2023-09-30T01:00:40;9.25;;;6.18;;
31210;SDS011;17836;50.948;3.946;2023-09-30T01:03:07;9.43;;;6.95;;
31210;SDS011;17836;50.948;3.946;2023-09-30T01:05:32;11.07;;;6.07;;
31210;SDS011;17836;50.948;3.946;2023-09-30T01:07:58;7.15;;;6.45;;
31210;SDS011;17836;50.948;3.946;2023-09-30T01:10:26;9.38;;;6.47;;
31210;SDS011;17836;50.948;3.946;2023-09-30T01:12:52;9.98;;;6.85;;
31210;SDS011;17836;50.948;3.946;2023-09-30T01:20:34;12.25;;;7.05;;
31210;SDS011;17836;50.948;3.946;2023-09-30T01:22:59;13.15;;;7.22;;
31210;SDS011;17836;50.948;3.946;2023-09-30T01:25:25;8.98;;;6.40;;
31210;SDS011;17836;50.948;3.946;2023-09-30T01:27:50;13.57;;;7.50;;
31210;SDS011;17836;50.948;3.946;2023-09-30T01:30:19;11.20;;;7.15;;
31210;SDS011;17836;50.948;3.946;2023-09-30T01:32:44;13.35;;;7.03;;
31210;SDS011;17836;50.948;3.946;2023-09-30T01:35:09;8.37;;;7.17;;
31210;SDS011;17836;50.948;3.946;2023-09-30T01:37:35;8.95;;;6.65;;
31210;SDS011;17836;50.948;3.946;2023-09-30T01:40:00;8.35;;;6.50;;
31210;SDS011;17836;50.948;3.946;2023-09-30T01:42:25;13.10;;;7.38;;
31210;SDS011;17836;50.948;3.946;2023-09-30T01:44:53;17.40;;;7.60;;
31210;SDS011;17836;50.948;3.946;2023-09-30T01:47:19;13.57;;;7.03;;
31210;SDS011;17836;50.948;3.946;2023-09-30T01:49:44;8.48;;;7.07;;
31210;SDS011;17836;50.948;3.946;2023-09-30T01:52:10;10.60;;;7.03;;
31210;SDS011;17836;50.948;3.946;2023-09-30T01:54:35;8.70;;;6.53;;
31210;SDS011;17836;50.948;3.946;2023-09-30T01:57:03;13.65;;;7.57;;
31210;SDS011;17836;50.948;3.946;2023-09-30T01:59:31;8.77;;;6.90;;
31210;SDS011;17836;50.948;3.946;2023-09-30T02:01:56;14.70;;;7.47;;
31210;SDS011;17836;50.948;3.946;2023-09-30T02:04:24;10.85;;;7.30;;
31210;SDS011;17836;50.948;3.946;2023-09-30T02:06:49;10.37;;;7.57;;
31210;SDS011;17836;50.948;3.946;2023-09-30T02:09:14;10.47;;;7.77;;
31210;SDS011;17836;50.948;3.946;2023-09-30T02:11:39;12.97;;;8.13;;
31210;SDS011;17836;50.948;3.946;2023-09-30T02:14:06;8.73;;;7.82;;
31210;SDS011;17836;50.948;3.946;2023-09-30T02:16:31;13.52;;;8.50;;
31210;SDS011;17836;50.948;3.946;2023-09-30T02:18:57;13.07;;;8.30;;
31210;SDS011;17836;50.948;3.946;2023-09-30T02:21:22;13.68;;;7.35;;
31210;SDS011;17836;50.948;3.946;2023-09-30T02:23:47;10.50;;;8.15;;
31210;SDS011;17836;50.948;3.946;2023-09-30T02:26:13;13.07;;;8.90;;
31210;SDS011;17836;50.948;3.946;2023-09-30T02:28:41;11.77;;;9.00;;
31210;SDS011;17836;50.948;3.946;2023-09-30T02:31:06;10.43;;;8.30;;
31210;SDS011;17836;50.948;3.946;2023-09-30T02:33:32;10.60;;;8.05;;
31210;SDS011;17836;50.948;3.946;2023-09-30T02:36:00;9.27;;;7.97;;
31210;SDS011;17836;50.948;3.946;2023-09-30T02:38:25;13.67;;;8.40;;
31210;SDS011;17836;50.948;3.946;2023-09-30T02:40:50;11.60;;;8.87;;
31210;SDS011;17836;50.948;3.946;2023-09-30T02:43:16;12.82;;;8.60;;
31210;SDS011;17836;50.948;3.946;2023-09-30T02:45:42;16.27;;;8.60;;
31210;SDS011;17836;50.948;3.946;2023-09-30T02:48:08;11.57;;;8.75;;
31210;SDS011;17836;50.948;3.946;2023-09-30T02:50:33;13.73;;;8.37;;
31210;SDS011;17836;50.948;3.946;2023-09-30T02:52:59;14.47;;;8.90;;
31210;SDS011;17836;50.948;3.946;2023-09-30T02:55:24;11.32;;;7.90;;
31210;SDS011;17836;50.948;3.946;2023-09-30T02:57:49;12.50;;;8.27;;
31210;SDS011;17836;50.948;3.946;2023-09-30T03:00:15;13.50;;;8.03;;
31210;SDS011;17836;50.948;3.946;2023-09-30T03:02:52;10.27;;;9.13;;
31210;SDS011;17836;50.948;3.946;2023-09-30T03:05:18;16.95;;;8.68;;
31210;SDS011;17836;50.948;3.946;2023-09-30T03:07:46;12.70;;;8.63;;
31210;SDS011;17836;50.948;3.946;2023-09-30T03:10:11;12.68;;;10.20;;
31210;SDS011;17836;50.948;3.946;2023-09-30T03:12:39;15.05;;;9.95;;
31210;SDS011;17836;50.948;3.946;2023-09-30T03:15:04;15.38;;;9.32;;
31210;SDS011;17836;50.948;3.946;2023-09-30T03:17:30;18.63;;;10.38;;
31210;SDS011;17836;50.948;3.946;2023-09-30T03:19:57;13.93;;;9.48;;
31210;SDS011;17836;50.948;3.946;2023-09-30T03:22:22;15.75;;;10.15;;
31210;SDS011;17836;50.948;3.946;2023-09-30T03:24:47;11.73;;;10.13;;
31210;SDS011;17836;50.948;3.946;2023-09-30T03:27:12;14.20;;;9.93;;
31210;SDS011;17836;50.948;3.946;2023-09-30T03:29:38;10.87;;;9.33;;
31210;SDS011;17836;50.948;3.946;2023-09-30T03:32:03;14.32;;;11.50;;
31210;SDS011;17836;50.948;3.946;2023-09-30T03:34:31;16.85;;;11.13;;
31210;SDS011;17836;50.948;3.946;2023-09-30T03:36:56;16.20;;;11.10;;
31210;SDS011;17836;50.948;3.946;2023-09-30T03:39:23;16.85;;;10.60;;
31210;SDS011;17836;50.948;3.946;2023-09-30T03:41:53;15.63;;;10.25;;
31210;SDS011;17836;50.948;3.946;2023-09-30T03:44:19;12.07;;;10.13;;
31210;SDS011;17836;50.948;3.946;2023-09-30T03:46:44;21.02;;;11.25;;
31210;SDS011;17836;50.948;3.946;2023-09-30T03:49:09;20.07;;;12.00;;
31210;SDS011;17836;50.948;3.946;2023-09-30T03:51:38;22.25;;;11.57;;
31210;SDS011;17836;50.948;3.946;2023-09-30T03:54:04;13.73;;;10.88;;
31210;SDS011;17836;50.948;3.946;2023-09-30T03:56:30;15.07;;;10.98;;
31210;SDS011;17836;50.948;3.946;2023-09-30T03:58:56;17.52;;;10.98;;
31210;SDS011;17836;50.948;3.946;2023-09-30T04:01:21;16.67;;;10.63;;
31210;SDS011;17836;50.948;3.946;2023-09-30T04:03:50;22.40;;;11.48;;
31210;SDS011;17836;50.948;3.946;2023-09-30T04:08:44;15.68;;;10.15;;
31210;SDS011;17836;50.948;3.946;2023-09-30T04:11:09;15.30;;;10.90;;
31210;SDS011;17836;50.948;3.946;2023-09-30T04:13:39;17.80;;;11.18;;
31210;SDS011;17836;50.948;3.946;2023-09-30T04:16:05;17.60;;;11.48;;
31210;SDS011;17836;50.948;3.946;2023-09-30T04:18:30;16.25;;;11.50;;
31210;SDS011;17836;50.948;3.946;2023-09-30T04:20:55;19.25;;;10.98;;
31210;SDS011;17836;50.948;3.946;2023-09-30T04:23:21;16.90;;;11.37;;
31210;SDS011;17836;50.948;3.946;2023-09-30T04:25:47;19.65;;;11.43;;
31210;SDS011;17836;50.948;3.946;2023-09-30T04:28:13;18.38;;;10.07;;
31210;SDS011;17836;50.948;3.946;2023-09-30T04:30:39;13.40;;;10.13;;
31210;SDS011;17836;50.948;3.946;2023-09-30T04:33:04;14.27;;;9.40;;
31210;SDS011;17836;50.948;3.946;2023-09-30T04:35:30;14.95;;;9.73;;
31210;SDS011;17836;50.948;3.946;2023-09-30T04:37:56;12.52;;;10.15;;
31210;SDS011;17836;50.948;3.946;2023-09-30T04:40:26;20.27;;;10.13;;
31210;SDS011;17836;50.948;3.946;2023-09-30T04:42:51;19.90;;;10.98;;
31210;SDS011;17836;50.948;3.946;2023-09-30T04:45:19;19.33;;;10.85;;
31210;SDS011;17836;50.948;3.946;2023-09-30T04:47:49;17.83;;;11.02;;
31210;SDS011;17836;50.948;3.946;2023-09-30T04:50:15;16.80;;;11.48;;
31210;SDS011;17836;50.948;3.946;2023-09-30T04:52:41;14.00;;;10.70;;
31210;SDS011;17836;50.948;3.946;2023-09-30T04:55:06;19.40;;;12.18;;
31210;SDS011;17836;50.948;3.946;2023-09-30T04:57:31;18.45;;;13.00;;
31210;SDS011;17836;50.948;3.946;2023-09-30T04:59:57;17.90;;;12.48;;
31210;SDS011;17836;50.948;3.946;2023-09-30T05:02:23;18.75;;;12.45;;
31210;SDS011;17836;50.948;3.946;2023-09-30T05:04:50;26.80;;;13.00;;
31210;SDS011;17836;50.948;3.946;2023-09-30T05:07:17;22.70;;;12.23;;
31210;SDS011;17836;50.948;3.946;2023-09-30T05:09:42;15.77;;;10.93;;
31210;SDS011;17836;50.948;3.946;2023-09-30T05:12:08;24.15;;;12.27;;
31210;SDS011;17836;50.948;3.946;2023-09-30T05:14:35;17.20;;;11.35;;
31210;SDS011;17836;50.948;3.946;2023-09-30T05:17:01;16.33;;;10.18;;
31210;SDS011;17836;50.948;3.946;2023-09-30T05:19:27;16.88;;;11.50;;
31210;SDS011;17836;50.948;3.946;2023-09-30T05:21:56;24.63;;;12.63;;
31210;SDS011;17836;50.948;3.946;2023-09-30T05:24:22;20.47;;;10.97;;
31210;SDS011;17836;50.948;3.946;2023-09-30T05:26:47;18.90;;;11.60;;
31210;SDS011;17836;50.948;3.946;2023-09-30T05:29:13;19.63;;;11.82;;
31210;SDS011;17836;50.948;3.946;2023-09-30T05:31:38;21.67;;;11.98;;
31210;SDS011;17836;50.948;3.946;2023-09-30T05:34:04;20.08;;;11.27;;
31210;SDS011;17836;50.948;3.946;2023-09-30T05:36:29;19.77;;;12.32;;
31210;SDS011;17836;50.948;3.946;2023-09-30T05:38:55;18.13;;;11.05;;
31210;SDS011;17836;50.948;3.946;2023-09-30T05:41:20;23.35;;;13.32;;
31210;SDS011;17836;50.948;3.946;2023-09-30T05:43:46;24.65;;;12.75;;
31210;SDS011;17836;50.948;3.946;2023-09-30T05:46:11;26.25;;;13.05;;
31210;SDS011;17836;50.948;3.946;2023-09-30T05:48:39;27.35;;;14.57;;
31210;SDS011;17836;50.948;3.946;2023-09-30T05:51:05;20.60;;;13.45;;
31210;SDS011;17836;50.948;3.946;2023-09-30T05:53:31;30.13;;;15.18;;
31210;SDS011;17836;50.948;3.946;2023-09-30T05:55:58;27.67;;;15.60;;
31210;SDS011;17836;50.948;3.946;2023-09-30T05:58:25;30.73;;;17.08;;
31210;SDS011;17836;50.948;3.946;2023-09-30T06:00:51;44.63;;;17.88;;
31210;SDS011;17836;50.948;3.946;2023-09-30T06:03:16;36.17;;;18.55;;
31210;SDS011;17836;50.948;3.946;2023-09-30T06:05:42;37.60;;;19.35;;
31210;SDS011;17836;50.948;3.946;2023-09-30T06:08:08;38.50;;;19.88;;
31210;SDS011;17836;50.948;3.946;2023-09-30T06:10:38;43.20;;;21.27;;
31210;SDS011;17836;50.948;3.946;2023-09-30T06:13:07;39.17;;;19.85;;
31210;SDS011;17836;50.948;3.946;2023-09-30T06:15:33;42.38;;;19.02;;
31210;SDS011;17836;50.948;3.946;2023-09-30T06:17:59;38.47;;;21.13;;
31210;SDS011;17836;50.948;3.946;2023-09-30T06:20:25;40.67;;;20.42;;
31210;SDS011;17836;50.948;3.946;2023-09-30T06:22:51;43.25;;;20.42;;
31210;SDS011;17836;50.948;3.946;2023-09-30T06:25:18;43.53;;;20.73;;
31210;SDS011;17836;50.948;3.946;2023-09-30T06:27:44;44.65;;;19.95;;
31210;SDS011;17836;50.948;3.946;2023-09-30T06:30:10;39.17;;;19.30;;
31210;SDS011;17836;50.948;3.946;2023-09-30T06:32:35;44.42;;;19.98;;
31210;SDS011;17836;50.948;3.946;2023-09-30T06:35:03;43.92;;;21.75;;
31210;SDS011;17836;50.948;3.946;2023-09-30T06:37:31;43.42;;;20.13;;
31210;SDS011;17836;50.948;3.946;2023-09-30T06:39:56;34.63;;;19.42;;
31210;SDS011;17836;50.948;3.946;2023-09-30T06:42:21;37.00;;;19.93;;
31210;SDS011;17836;50.948;3.946;2023-09-30T06:44:47;34.97;;;17.50;;
31210;SDS011;17836;50.948;3.946;2023-09-30T06:47:12;37.10;;;19.50;;
31210;SDS011;17836;50.948;3.946;2023-09-30T06:49:38;34.83;;;16.43;;
31210;SDS011;17836;50.948;3.946;2023-09-30T06:52:06;38.47;;;16.35;;
31210;SDS011;17836;50.948;3.946;2023-09-30T06:54:32;27.65;;;16.05;;
31210;SDS011;17836;50.948;3.946;2023-09-30T06:57:02;32.50;;;15.70;;
31210;SDS011;17836;50.948;3.946;2023-09-30T06:59:27;25.85;;;15.05;;
31210;SDS011;17836;50.948;3.946;2023-09-30T07:01:53;23.37;;;15.13;;
31210;SDS011;17836;50.948;3.946;2023-09-30T07:04:19;28.65;;;15.52;;
31210;SDS011;17836;50.948;3.946;2023-09-30T07:06:46;23.85;;;14.77;;
31210;SDS011;17836;50.948;3.946;2023-09-30T07:09:11;29.27;;;13.85;;
31210;SDS011;17836;50.948;3.946;2023-09-30T07:11:37;19.95;;;12.90;;
31210;SDS011;17836;50.948;3.946;2023-09-30T07:14:02;22.65;;;12.15;;
31210;SDS011;17836;50.948;3.946;2023-09-30T07:16:27;20.10;;;11.67;;
31210;SDS011;17836;50.948;3.946;2023-09-30T07:18:53;21.88;;;12.63;;
31210;SDS011;17836;50.948;3.946;2023-09-30T07:21:19;20.17;;;13.48;;
31210;SDS011;17836;50.948;3.946;2023-09-30T07:23:44;21.70;;;12.50;;
31210;SDS011;17836;50.948;3.946;2023-09-30T07:26:09;19.63;;;12.30;;
31210;SDS011;17836;50.948;3.946;2023-09-30T07:28:34;21.27;;;11.80;;
31210;SDS011;17836;50.948;3.946;2023-09-30T07:31:00;17.25;;;11.13;;
31210;SDS011;17836;50.948;3.946;2023-09-30T07:33:25;14.80;;;10.43;;
31210;SDS011;17836;50.948;3.946;2023-09-30T07:35:50;21.08;;;9.88;;
31210;SDS011;17836;50.948;3.946;2023-09-30T07:38:16;18.87;;;9.33;;
31210;SDS011;17836;50.948;3.946;2023-09-30T07:40:41;17.42;;;10.02;;
31210;SDS011;17836;50.948;3.946;2023-09-30T07:43:07;18.77;;;9.40;;
31210;SDS011;17836;50.948;3.946;2023-09-30T07:45:32;19.33;;;9.53;;
31210;SDS011;17836;50.948;3.946;2023-09-30T07:47:57;15.45;;;8.05;;
31210;SDS011;17836;50.948;3.946;2023-09-30T07:50:29;13.15;;;8.43;;
31210;SDS011;17836;50.948;3.946;2023-09-30T07:52:57;14.43;;;7.97;;
31210;SDS011;17836;50.948;3.946;2023-09-30T07:55:23;21.38;;;8.05;;
31210;SDS011;17836;50.948;3.946;2023-09-30T07:57:49;19.35;;;8.27;;
31210;SDS011;17836;50.948;3.946;2023-09-30T08:00:14;16.63;;;7.03;;
31210;SDS011;17836;50.948;3.946;2023-09-30T08:02:42;14.23;;;7.20;;
31210;SDS011;17836;50.948;3.946;2023-09-30T08:05:08;20.10;;;6.63;;
31210;SDS011;17836;50.948;3.946;2023-09-30T08:07:34;18.42;;;6.90;;
31210;SDS011;17836;50.948;3.946;2023-09-30T08:09:59;17.60;;;6.60;;
31210;SDS011;17836;50.948;3.946;2023-09-30T08:12:25;11.68;;;6.00;;
31210;SDS011;17836;50.948;3.946;2023-09-30T08:14:52;22.73;;;7.22;;
31210;SDS011;17836;50.948;3.946;2023-09-30T08:17:18;14.80;;;5.87;;
31210;SDS011;17836;50.948;3.946;2023-09-30T08:19:46;16.57;;;5.70;;
31210;SDS011;17836;50.948;3.946;2023-09-30T08:22:13;19.17;;;6.28;;
31210;SDS011;17836;50.948;3.946;2023-09-30T08:24:40;13.77;;;5.38;;
31210;SDS011;17836;50.948;3.946;2023-09-30T08:27:06;18.02;;;6.22;;
31210;SDS011;17836;50.948;3.946;2023-09-30T08:29:34;23.02;;;6.50;;
31210;SDS011;17836;50.948;3.946;2023-09-30T08:32:01;15.40;;;6.13;;
31210;SDS011;17836;50.948;3.946;2023-09-30T08:34:26;17.83;;;6.55;;
31210;SDS011;17836;50.948;3.946;2023-09-30T08:36:51;15.80;;;5.60;;
31210;SDS011;17836;50.948;3.946;2023-09-30T08:39:17;14.88;;;5.55;;
31210;SDS011;17836;50.948;3.946;2023-09-30T08:41:42;15.23;;;6.43;;
31210;SDS011;17836;50.948;3.946;2023-09-30T08:44:09;19.98;;;6.53;;
31210;SDS011;17836;50.948;3.946;2023-09-30T08:46:34;20.57;;;6.43;;
31210;SDS011;17836;50.948;3.946;2023-09-30T08:49:03;16.52;;;7.63;;
31210;SDS011;17836;50.948;3.946;2023-09-30T08:51:29;19.63;;;7.35;;
31210;SDS011;17836;50.948;3.946;2023-09-30T08:53:55;22.45;;;8.43;;
31210;SDS011;17836;50.948;3.946;2023-09-30T08:56:23;13.90;;;6.47;;
31210;SDS011;17836;50.948;3.946;2023-09-30T08:58:49;17.33;;;6.38;;
31210;SDS011;17836;50.948;3.946;2023-09-30T09:01:15;18.80;;;6.28;;
31210;SDS011;17836;50.948;3.946;2023-09-30T09:03:41;17.20;;;8.60;;
31210;SDS011;17836;50.948;3.946;2023-09-30T09:06:06;15.10;;;7.03;;
31210;SDS011;17836;50.948;3.946;2023-09-30T09:08:31;17.80;;;6.97;;
31210;SDS011;17836;50.948;3.946;2023-09-30T09:10:57;17.42;;;6.45;;
31210;SDS011;17836;50.948;3.946;2023-09-30T09:13:26;17.65;;;6.10;;
31210;SDS011;17836;50.948;3.946;2023-09-30T09:16:07;21.67;;;6.93;;
31210;SDS011;17836;50.948;3.946;2023-09-30T09:18:33;15.30;;;6.63;;
31210;SDS011;17836;50.948;3.946;2023-09-30T09:23:55;13.38;;;6.82;;
31210;SDS011;17836;50.948;3.946;2023-09-30T09:26:28;17.87;;;6.57;;
31210;SDS011;17836;50.948;3.946;2023-09-30T09:29:00;17.60;;;7.13;;
31210;SDS011;17836;50.948;3.946;2023-09-30T09:31:29;17.15;;;6.43;;
31210;SDS011;17836;50.948;3.946;2023-09-30T09:33:59;19.35;;;6.75;;
31210;SDS011;17836;50.948;3.946;2023-09-30T09:36:44;17.10;;;6.38;;
31210;SDS011;17836;50.948;3.946;2023-09-30T09:39:12;11.50;;;6.03;;
31210;SDS011;17836;50.948;3.946;2023-09-30T09:41:51;13.82;;;6.45;;
31210;SDS011;17836;50.948;3.946;2023-09-30T09:44:19;11.65;;;5.97;;
31210;SDS011;17836;50.948;3.946;2023-09-30T09:46:45;13.50;;;5.60;;
31210;SDS011;17836;50.948;3.946;2023-09-30T09:49:12;13.77;;;6.15;;
31210;SDS011;17836;50.948;3.946;2023-09-30T09:51:37;15.70;;;6.15;;
31210;SDS011;17836;50.948;3.946;2023-09-30T09:54:03;22.38;;;6.32;;
31210;SDS011;17836;50.948;3.946;2023-09-30T09:56:32;16.63;;;6.50;;
31210;SDS011;17836;50.948;3.946;2023-09-30T09:58:59;15.57;;;5.97;;
31210;SDS011;17836;50.948;3.946;2023-09-30T10:01:26;14.70;;;5.30;;
31210;SDS011;17836;50.948;3.946;2023-09-30T10:03:53;17.13;;;5.32;;
31210;SDS011;17836;50.948;3.946;2023-09-30T10:06:19;18.92;;;6.50;;
31210;SDS011;17836;50.948;3.946;2023-09-30T10:08:45;14.65;;;6.63;;
31210;SDS011;17836;50.948;3.946;2023-09-30T10:11:18;18.08;;;6.40;;
31210;SDS011;17836;50.948;3.946;2023-09-30T10:13:50;12.48;;;5.55;;
31210;SDS011;17836;50.948;3.946;2023-09-30T10:24:42;13.57;;;4.70;;
31210;SDS011;17836;50.948;3.946;2023-09-30T10:29:57;13.68;;;5.30;;
31210;SDS011;17836;50.948;3.946;2023-09-30T10:35:11;11.05;;;4.57;;
31210;SDS011;17836;50.948;3.946;2023-09-30T10:37:36;10.43;;;4.50;;
31210;SDS011;17836;50.948;3.946;2023-09-30T10:40:01;19.90;;;5.53;;
31210;SDS011;17836;50.948;3.946;2023-09-30T10:42:50;15.32;;;4.50;;
31210;SDS011;17836;50.948;3.946;2023-09-30T10:51:00;10.77;;;3.90;;
31210;SDS011;17836;50.948;3.946;2023-09-30T10:53:27;15.93;;;4.10;;
31210;SDS011;17836;50.948;3.946;2023-09-30T10:55:59;11.63;;;3.78;;
31210;SDS011;17836;50.948;3.946;2023-09-30T10:58:38;8.30;;;3.85;;
31210;SDS011;17836;50.948;3.946;2023-09-30T11:01:03;13.85;;;4.47;;
31210;SDS011;17836;50.948;3.946;2023-09-30T11:03:31;12.98;;;3.85;;
31210;SDS011;17836;50.948;3.946;2023-09-30T11:05:56;12.23;;;3.37;;
31210;SDS011;17836;50.948;3.946;2023-09-30T11:08:21;8.43;;;3.37;;
31210;SDS011;17836;50.948;3.946;2023-09-30T11:10:50;10.55;;;2.92;;
31210;SDS011;17836;50.948;3.946;2023-09-30T11:13:16;11.02;;;3.97;;
31210;SDS011;17836;50.948;3.946;2023-09-30T11:15:41;11.63;;;3.63;;
31210;SDS011;17836;50.948;3.946;2023-09-30T11:18:13;11.30;;;3.55;;
31210;SDS011;17836;50.948;3.946;2023-09-30T11:20:38;16.13;;;4.40;;
31210;SDS011;17836;50.948;3.946;2023-09-30T11:23:06;7.72;;;2.80;;
31210;SDS011;17836;50.948;3.946;2023-09-30T11:25:35;12.68;;;3.20;;
31210;SDS011;17836;50.948;3.946;2023-09-30T11:28:15;14.65;;;3.85;;
31210;SDS011;17836;50.948;3.946;2023-09-30T11:30:59;9.82;;;2.67;;
31210;SDS011;17836;50.948;3.946;2023-09-30T11:33:25;9.45;;;2.85;;
31210;SDS011;17836;50.948;3.946;2023-09-30T11:36:00;10.75;;;2.97;;
31210;SDS011;17836;50.948;3.946;2023-09-30T11:38:28;9.23;;;2.33;;
31210;SDS011;17836;50.948;3.946;2023-09-30T11:41:03;8.25;;;2.75;;
31210;SDS011;17836;50.948;3.946;2023-09-30T11:43:32;6.95;;;3.05;;
31210;SDS011;17836;50.948;3.946;2023-09-30T11:46:10;7.90;;;2.88;;
31210;SDS011;17836;50.948;3.946;2023-09-30T11:48:38;8.77;;;2.72;;
31210;SDS011;17836;50.948;3.946;2023-09-30T11:51:06;8.70;;;2.88;;
31210;SDS011;17836;50.948;3.946;2023-09-30T11:53:32;6.27;;;2.97;;
31210;SDS011;17836;50.948;3.946;2023-09-30T11:55:57;7.28;;;2.92;;
31210;SDS011;17836;50.948;3.946;2023-09-30T11:58:27;6.43;;;2.17;;
31210;SDS011;17836;50.948;3.946;2023-09-30T12:00:53;8.35;;;3.05;;
31210;SDS011;17836;50.948;3.946;2023-09-30T12:03:18;6.03;;;2.10;;
31210;SDS011;17836;50.948;3.946;2023-09-30T12:05:45;11.98;;;2.88;;
31210;SDS011;17836;50.948;3.946;2023-09-30T12:08:11;5.50;;;2.47;;
31210;SDS011;17836;50.948;3.946;2023-09-30T12:10:36;9.00;;;3.00;;
31210;SDS011;17836;50.948;3.946;2023-09-30T12:13:01;6.50;;;2.50;;
31210;SDS011;17836;50.948;3.946;2023-09-30T12:15:26;8.25;;;2.50;;
31210;SDS011;17836;50.948;3.946;2023-09-30T12:17:52;8.53;;;3.10;;
31210;SDS011;17836;50.948;3.946;2023-09-30T12:20:17;7.30;;;2.10;;
31210;SDS011;17836;50.948;3.946;2023-09-30T12:22:43;6.80;;;2.47;;
31210;SDS011;17836;50.948;3.946;2023-09-30T12:25:08;8.17;;;3.23;;
31210;SDS011;17836;50.948;3.946;2023-09-30T12:27:33;5.07;;;2.23;;
31210;SDS011;17836;50.948;3.946;2023-09-30T12:30:01;6.47;;;2.30;;
31210;SDS011;17836;50.948;3.946;2023-09-30T12:32:29;6.90;;;2.10;;
31210;SDS011;17836;50.948;3.946;2023-09-30T12:34:56;4.30;;;1.98;;
31210;SDS011;17836;50.948;3.946;2023-09-30T12:37:22;4.03;;;1.50;;
31210;SDS011;17836;50.948;3.946;2023-09-30T12:39:47;5.43;;;2.07;;
31210;SDS011;17836;50.948;3.946;2023-09-30T12:42:12;8.10;;;2.20;;
31210;SDS011;17836;50.948;3.946;2023-09-30T12:44:39;7.30;;;2.15;;
31210;SDS011;17836;50.948;3.946;2023-09-30T12:47:04;5.10;;;2.03;;
31210;SDS011;17836;50.948;3.946;2023-09-30T12:49:30;6.53;;;2.25;;
31210;SDS011;17836;50.948;3.946;2023-09-30T12:51:55;7.35;;;1.85;;
31210;SDS011;17836;50.948;3.946;2023-09-30T12:54:22;6.63;;;2.42;;
31210;SDS011;17836;50.948;3.946;2023-09-30T12:56:48;5.65;;;2.35;;
31210;SDS011;17836;50.948;3.946;2023-09-30T12:59:13;10.75;;;3.00;;
31210;SDS011;17836;50.948;3.946;2023-09-30T13:01:38;5.20;;;2.23;;
31210;SDS011;17836;50.948;3.946;2023-09-30T13:04:04;7.38;;;2.60;;
31210;SDS011;17836;50.948;3.946;2023-09-30T13:06:33;9.25;;;2.50;;
31210;SDS011;17836;50.948;3.946;2023-09-30T13:09:03;6.57;;;2.60;;
31210;SDS011;17836;50.948;3.946;2023-09-30T13:11:29;7.80;;;2.33;;
31210;SDS011;17836;50.948;3.946;2023-09-30T13:13:55;5.20;;;2.60;;
31210;SDS011;17836;50.948;3.946;2023-09-30T13:16:22;7.15;;;2.58;;
31210;SDS011;17836;50.948;3.946;2023-09-30T13:18:48;6.80;;;2.93;;
31210;SDS011;17836;50.948;3.946;2023-09-30T13:21:16;6.78;;;2.47;;
31210;SDS011;17836;50.948;3.946;2023-09-30T13:23:41;10.15;;;2.95;;
31210;SDS011;17836;50.948;3.946;2023-09-30T13:26:09;5.93;;;2.05;;
31210;SDS011;17836;50.948;3.946;2023-09-30T13:28:34;5.82;;;2.22;;
31210;SDS011;17836;50.948;3.946;2023-09-30T13:31:00;9.43;;;2.47;;
31210;SDS011;17836;50.948;3.946;2023-09-30T13:33:25;6.93;;;2.33;;
31210;SDS011;17836;50.948;3.946;2023-09-30T13:35:51;6.53;;;2.33;;
31210;SDS011;17836;50.948;3.946;2023-09-30T13:38:16;5.10;;;2.13;;
31210;SDS011;17836;50.948;3.946;2023-09-30T13:40:42;8.63;;;2.47;;
31210;SDS011;17836;50.948;3.946;2023-09-30T13:43:07;4.65;;;1.98;;
31210;SDS011;17836;50.948;3.946;2023-09-30T13:45:32;7.75;;;2.05;;
31210;SDS011;17836;50.948;3.946;2023-09-30T13:48:00;6.35;;;2.40;;
31210;SDS011;17836;50.948;3.946;2023-09-30T13:50:26;7.73;;;2.37;;
31210;SDS011;17836;50.948;3.946;2023-09-30T13:52:53;9.27;;;2.13;;
31210;SDS011;17836;50.948;3.946;2023-09-30T13:55:18;5.10;;;1.87;;
31210;SDS011;17836;50.948;3.946;2023-09-30T13:57:47;9.75;;;2.53;;
31210;SDS011;17836;50.948;3.946;2023-09-30T14:00:15;4.90;;;1.80;;
31210;SDS011;17836;50.948;3.946;2023-09-30T14:02:42;5.20;;;2.17;;
31210;SDS011;17836;50.948;3.946;2023-09-30T14:05:08;5.90;;;2.28;;
31210;SDS011;17836;50.948;3.946;2023-09-30T14:07:33;5.15;;;2.00;;
31210;SDS011;17836;50.948;3.946;2023-09-30T14:09:59;4.10;;;2.10;;
31210;SDS011;17836;50.948;3.946;2023-09-30T14:12:24;11.43;;;2.90;;
31210;SDS011;17836;50.948;3.946;2023-09-30T14:14:49;9.32;;;2.40;;
31210;SDS011;17836;50.948;3.946;2023-09-30T14:17:18;9.50;;;2.72;;
31210;SDS011;17836;50.948;3.946;2023-09-30T14:19:44;5.13;;;2.20;;
31210;SDS011;17836;50.948;3.946;2023-09-30T14:22:09;5.17;;;2.40;;
31210;SDS011;17836;50.948;3.946;2023-09-30T14:24:37;6.40;;;2.17;;
31210;SDS011;17836;50.948;3.946;2023-09-30T14:27:02;7.00;;;2.20;;
31210;SDS011;17836;50.948;3.946;2023-09-30T14:29:28;5.63;;;2.13;;
31210;SDS011;17836;50.948;3.946;2023-09-30T14:31:53;7.25;;;2.25;;
31210;SDS011;17836;50.948;3.946;2023-09-30T14:34:19;5.28;;;1.90;;
31210;SDS011;17836;50.948;3.946;2023-09-30T14:36:44;5.40;;;2.10;;
31210;SDS011;17836;50.948;3.946;2023-09-30T14:39:10;4.10;;;1.70;;
31210;SDS011;17836;50.948;3.946;2023-09-30T14:41:35;6.60;;;2.28;;
31210;SDS011;17836;50.948;3.946;2023-09-30T14:44:00;5.85;;;1.98;;
31210;SDS011;17836;50.948;3.946;2023-09-30T14:46:26;5.97;;;2.40;;
31210;SDS011;17836;50.948;3.946;2023-09-30T14:48:51;7.70;;;2.45;;
31210;SDS011;17836;50.948;3.946;2023-09-30T14:51:16;5.97;;;2.13;;
31210;SDS011;17836;50.948;3.946;2023-09-30T14:53:46;6.28;;;2.08;;
31210;SDS011;17836;50.948;3.946;2023-09-30T14:56:15;4.47;;;2.50;;
31210;SDS011;17836;50.948;3.946;2023-09-30T14:58:41;7.53;;;2.42;;
31210;SDS011;17836;50.948;3.946;2023-09-30T15:01:09;9.97;;;2.60;;
31210;SDS011;17836;50.948;3.946;2023-09-30T15:03:34;7.72;;;2.67;;
31210;SDS011;17836;50.948;3.946;2023-09-30T15:06:02;7.07;;;2.15;;
31210;SDS011;17836;50.948;3.946;2023-09-30T15:08:27;9.75;;;2.28;;